sensor_id;sensor_type;location;lat;lon;timestamp;P1;durP1;ratioP1;P2;durP2;ratioP2
2810;SDS011;1413;52.440;13.506;2022-09-28T00:01:04;3.95;;;2.00;;
2810;SDS011;1413;52.440;13.506;2022-09-28T00:03:31;4.45;;;1.95;;
2810;SDS011;1413;52.440;13.506;2022-09-28T00:06:00;4.63;;;2.28;;
2810;SDS011;1413;52.440;13.506;2022-09-28T00:08:27;5.57;;;2.20;;
2810;SDS011;1413;52.440;13.506;2022-09-28T00:10:54;4.93;;;1.85;;
2810;SDS011;1413;52.440;13.506;2022-09-28T00:13:23;5.60;;;1.88;;
2810;SDS011;1413;52.440;13.506;2022-09-28T00:15:58;4.38;;;1.83;;
2810;SDS011;1413;52.440;13.506;2022-09-28T00:18:25;5.63;;;1.83;;
2810;SDS011;1413;52.440;13.506;2022-09-28T00:21:00;4.72;;;1.85;;
2810;SDS011;1413;52.440;13.506;2022-09-28T00:23:27;3.50;;;1.60;;
2810;SDS011;1413;52.440;13.506;2022-09-28T00:25:55;4.43;;;1.88;;
2810;SDS011;1413;52.440;13.506;2022-09-28T00:28:23;3.72;;;1.83;;
2810;SDS011;1413;52.440;13.506;2022-09-28T00:30:53;4.95;;;1.75;;
2810;SDS011;1413;52.440;13.506;2022-09-28T00:33:21;5.65;;;2.03;;
2810;SDS011;1413;52.440;13.506;2022-09-28T00:35:53;3.97;;;1.92;;
2810;SDS011;1413;52.440;13.506;2022-09-28T00:38:20;5.10;;;1.60;;
2810;SDS011;1413;52.440;13.506;2022-09-28T00:40:48;3.83;;;1.73;;
2810;SDS011;1413;52.440;13.506;2022-09-28T00:43:16;4.35;;;1.95;;
2810;SDS011;1413;52.440;13.506;2022-09-28T00:45:46;4.03;;;1.60;;
2810;SDS011;1413;52.440;13.506;2022-09-28T00:48:14;4.88;;;1.63;;
2810;SDS011;1413;52.440;13.506;2022-09-28T00:50:41;3.85;;;1.67;;
2810;SDS011;1413;52.440;13.506;2022-09-28T00:53:11;4.15;;;1.90;;
2810;SDS011;1413;52.440;13.506;2022-09-28T00:55:41;5.70;;;2.00;;
2810;SDS011;1413;52.440;13.506;2022-09-28T00:58:11;3.55;;;1.63;;
2810;SDS011;1413;52.440;13.506;2022-09-28T01:00:39;3.40;;;1.63;;
2810;SDS011;1413;52.440;13.506;2022-09-28T01:03:08;3.60;;;1.77;;
2810;SDS011;1413;52.440;13.506;2022-09-28T01:05:36;3.60;;;1.90;;
2810;SDS011;1413;52.440;13.506;2022-09-28T01:08:04;5.25;;;1.98;;
2810;SDS011;1413;52.440;13.506;2022-09-28T01:10:32;4.13;;;1.60;;
2810;SDS011;1413;52.440;13.506;2022-09-28T01:12:59;4.50;;;1.92;;
2810;SDS011;1413;52.440;13.506;2022-09-28T01:15:27;4.40;;;2.00;;
2810;SDS011;1413;52.440;13.506;2022-09-28T01:17:59;3.90;;;1.90;;
2810;SDS011;1413;52.440;13.506;2022-09-28T01:20:36;3.58;;;1.90;;
2810;SDS011;1413;52.440;13.506;2022-09-28T01:25:52;3.80;;;2.10;;
2810;SDS011;1413;52.440;13.506;2022-09-28T01:28:22;4.22;;;1.98;;
2810;SDS011;1413;52.440;13.506;2022-09-28T01:30:54;5.97;;;1.85;;
2810;SDS011;1413;52.440;13.506;2022-09-28T01:33:23;4.45;;;1.95;;
2810;SDS011;1413;52.440;13.506;2022-09-28T01:35:53;5.00;;;2.03;;
2810;SDS011;1413;52.440;13.506;2022-09-28T01:38:24;5.03;;;1.98;;
2810;SDS011;1413;52.440;13.506;2022-09-28T01:40:53;4.40;;;1.70;;
2810;SDS011;1413;52.440;13.506;2022-09-28T01:43:22;3.70;;;1.98;;
2810;SDS011;1413;52.440;13.506;2022-09-28T01:45:52;4.22;;;2.03;;
2810;SDS011;1413;52.440;13.506;2022-09-28T01:48:21;3.88;;;1.80;;
2810;SDS011;1413;52.440;13.506;2022-09-28T01:50:51;4.38;;;1.85;;
2810;SDS011;1413;52.440;13.506;2022-09-28T01:53:21;4.07;;;2.05;;
2810;SDS011;1413;52.440;13.506;2022-09-28T01:55:51;4.93;;;2.45;;
2810;SDS011;1413;52.440;13.506;2022-09-28T01:58:21;4.63;;;2.20;;
2810;SDS011;1413;52.440;13.506;2022-09-28T02:00:55;5.25;;;2.10;;
2810;SDS011;1413;52.440;13.506;2022-09-28T02:03:24;6.50;;;3.20;;
2810;SDS011;1413;52.440;13.506;2022-09-28T02:05:53;5.45;;;2.60;;
2810;SDS011;1413;52.440;13.506;2022-09-28T02:08:22;5.57;;;2.33;;
2810;SDS011;1413;52.440;13.506;2022-09-28T02:10:53;6.30;;;2.45;;
2810;SDS011;1413;52.440;13.506;2022-09-28T02:13:22;4.70;;;2.60;;
2810;SDS011;1413;52.440;13.506;2022-09-28T02:15:52;6.50;;;2.60;;
2810;SDS011;1413;52.440;13.506;2022-09-28T02:18:22;4.97;;;2.55;;
2810;SDS011;1413;52.440;13.506;2022-09-28T02:20:51;4.82;;;2.33;;
2810;SDS011;1413;52.440;13.506;2022-09-28T02:23:23;4.88;;;2.38;;
2810;SDS011;1413;52.440;13.506;2022-09-28T02:25:53;5.78;;;2.40;;
2810;SDS011;1413;52.440;13.506;2022-09-28T02:28:24;5.53;;;2.53;;
2810;SDS011;1413;52.440;13.506;2022-09-28T02:30:51;5.38;;;2.38;;
2810;SDS011;1413;52.440;13.506;2022-09-28T02:33:20;6.03;;;2.50;;
2810;SDS011;1413;52.440;13.506;2022-09-28T02:35:50;5.82;;;2.78;;
2810;SDS011;1413;52.440;13.506;2022-09-28T02:38:17;5.55;;;2.67;;
2810;SDS011;1413;52.440;13.506;2022-09-28T02:40:46;5.68;;;2.80;;
2810;SDS011;1413;52.440;13.506;2022-09-28T02:43:21;5.93;;;2.97;;
2810;SDS011;1413;52.440;13.506;2022-09-28T02:45:52;5.28;;;2.80;;
2810;SDS011;1413;52.440;13.506;2022-09-28T02:48:26;7.15;;;2.90;;
2810;SDS011;1413;52.440;13.506;2022-09-28T02:51:13;6.10;;;2.92;;
2810;SDS011;1413;52.440;13.506;2022-09-28T02:53:49;6.80;;;3.20;;
2810;SDS011;1413;52.440;13.506;2022-09-28T02:56:22;7.72;;;2.65;;
2810;SDS011;1413;52.440;13.506;2022-09-28T02:58:55;6.70;;;2.85;;
2810;SDS011;1413;52.440;13.506;2022-09-28T03:01:25;5.15;;;2.72;;
2810;SDS011;1413;52.440;13.506;2022-09-28T03:03:56;6.55;;;3.15;;
2810;SDS011;1413;52.440;13.506;2022-09-28T03:06:26;6.90;;;2.70;;
2810;SDS011;1413;52.440;13.506;2022-09-28T03:08:56;5.50;;;2.90;;
2810;SDS011;1413;52.440;13.506;2022-09-28T03:11:26;8.38;;;2.95;;
2810;SDS011;1413;52.440;13.506;2022-09-28T03:13:54;9.68;;;3.28;;
2810;SDS011;1413;52.440;13.506;2022-09-28T03:16:22;8.40;;;3.40;;
2810;SDS011;1413;52.440;13.506;2022-09-28T03:18:49;10.65;;;4.88;;
2810;SDS011;1413;52.440;13.506;2022-09-28T03:21:17;11.27;;;5.25;;
2810;SDS011;1413;52.440;13.506;2022-09-28T03:23:45;13.05;;;6.35;;
2810;SDS011;1413;52.440;13.506;2022-09-28T03:26:13;10.95;;;5.50;;
2810;SDS011;1413;52.440;13.506;2022-09-28T03:28:42;11.27;;;6.10;;
2810;SDS011;1413;52.440;13.506;2022-09-28T03:31:09;10.63;;;5.50;;
2810;SDS011;1413;52.440;13.506;2022-09-28T03:33:36;6.60;;;3.33;;
2810;SDS011;1413;52.440;13.506;2022-09-28T03:36:04;7.63;;;3.63;;
2810;SDS011;1413;52.440;13.506;2022-09-28T03:38:33;7.32;;;3.25;;
2810;SDS011;1413;52.440;13.506;2022-09-28T03:41:02;7.22;;;3.60;;
2810;SDS011;1413;52.440;13.506;2022-09-28T03:43:30;5.72;;;3.30;;
2810;SDS011;1413;52.440;13.506;2022-09-28T03:45:58;8.07;;;3.97;;
2810;SDS011;1413;52.440;13.506;2022-09-28T03:48:26;14.95;;;5.07;;
2810;SDS011;1413;52.440;13.506;2022-09-28T03:50:58;7.75;;;3.60;;
2810;SDS011;1413;52.440;13.506;2022-09-28T03:53:26;7.93;;;3.72;;
2810;SDS011;1413;52.440;13.506;2022-09-28T03:55:54;7.47;;;3.70;;
2810;SDS011;1413;52.440;13.506;2022-09-28T03:58:23;6.70;;;3.72;;
2810;SDS011;1413;52.440;13.506;2022-09-28T04:00:53;8.15;;;3.70;;
2810;SDS011;1413;52.440;13.506;2022-09-28T04:03:21;8.18;;;3.72;;
2810;SDS011;1413;52.440;13.506;2022-09-28T04:05:49;7.78;;;3.90;;
2810;SDS011;1413;52.440;13.506;2022-09-28T04:08:16;7.85;;;3.50;;
2810;SDS011;1413;52.440;13.506;2022-09-28T04:10:44;9.40;;;3.38;;
2810;SDS011;1413;52.440;13.506;2022-09-28T04:13:11;6.47;;;3.05;;
2810;SDS011;1413;52.440;13.506;2022-09-28T04:15:40;7.65;;;3.40;;
2810;SDS011;1413;52.440;13.506;2022-09-28T04:18:08;7.53;;;3.38;;
2810;SDS011;1413;52.440;13.506;2022-09-28T04:20:35;7.00;;;3.45;;
2810;SDS011;1413;52.440;13.506;2022-09-28T04:23:03;8.95;;;3.30;;
2810;SDS011;1413;52.440;13.506;2022-09-28T04:25:31;8.00;;;3.85;;
2810;SDS011;1413;52.440;13.506;2022-09-28T04:27:58;9.02;;;3.97;;
2810;SDS011;1413;52.440;13.506;2022-09-28T04:30:46;8.55;;;4.07;;
2810;SDS011;1413;52.440;13.506;2022-09-28T04:33:13;8.85;;;3.95;;
2810;SDS011;1413;52.440;13.506;2022-09-28T04:35:41;9.25;;;3.80;;
2810;SDS011;1413;52.440;13.506;2022-09-28T04:38:08;7.32;;;3.53;;
2810;SDS011;1413;52.440;13.506;2022-09-28T04:40:35;8.32;;;4.07;;
2810;SDS011;1413;52.440;13.506;2022-09-28T04:43:03;7.68;;;4.07;;
2810;SDS011;1413;52.440;13.506;2022-09-28T04:45:30;8.50;;;4.00;;
2810;SDS011;1413;52.440;13.506;2022-09-28T04:47:59;8.77;;;4.00;;
2810;SDS011;1413;52.440;13.506;2022-09-28T04:50:27;7.32;;;3.55;;
2810;SDS011;1413;52.440;13.506;2022-09-28T04:52:54;7.07;;;3.55;;
2810;SDS011;1413;52.440;13.506;2022-09-28T04:55:22;8.60;;;3.83;;
2810;SDS011;1413;52.440;13.506;2022-09-28T04:57:49;8.88;;;4.10;;
2810;SDS011;1413;52.440;13.506;2022-09-28T05:00:16;7.53;;;3.70;;
2810;SDS011;1413;52.440;13.506;2022-09-28T05:02:44;9.05;;;4.00;;
2810;SDS011;1413;52.440;13.506;2022-09-28T05:05:13;6.90;;;3.30;;
2810;SDS011;1413;52.440;13.506;2022-09-28T05:07:40;9.48;;;3.80;;
2810;SDS011;1413;52.440;13.506;2022-09-28T05:10:08;6.65;;;3.50;;
2810;SDS011;1413;52.440;13.506;2022-09-28T05:12:35;7.07;;;3.67;;
2810;SDS011;1413;52.440;13.506;2022-09-28T05:15:03;6.57;;;3.50;;
2810;SDS011;1413;52.440;13.506;2022-09-28T05:17:30;9.38;;;3.60;;
2810;SDS011;1413;52.440;13.506;2022-09-28T05:19:57;10.68;;;3.50;;
2810;SDS011;1413;52.440;13.506;2022-09-28T05:22:27;6.35;;;3.13;;
2810;SDS011;1413;52.440;13.506;2022-09-28T05:24:54;7.38;;;3.75;;
2810;SDS011;1413;52.440;13.506;2022-09-28T05:27:23;6.82;;;3.45;;
2810;SDS011;1413;52.440;13.506;2022-09-28T05:29:50;6.80;;;3.67;;
2810;SDS011;1413;52.440;13.506;2022-09-28T05:32:18;10.68;;;3.40;;
2810;SDS011;1413;52.440;13.506;2022-09-28T05:34:45;7.50;;;3.30;;
2810;SDS011;1413;52.440;13.506;2022-09-28T05:37:12;9.25;;;3.55;;
2810;SDS011;1413;52.440;13.506;2022-09-28T05:39:41;7.40;;;3.33;;
2810;SDS011;1413;52.440;13.506;2022-09-28T05:42:08;8.73;;;3.50;;
2810;SDS011;1413;52.440;13.506;2022-09-28T05:44:36;6.15;;;3.33;;
2810;SDS011;1413;52.440;13.506;2022-09-28T05:47:04;6.80;;;3.45;;
2810;SDS011;1413;52.440;13.506;2022-09-28T05:49:31;6.50;;;2.92;;
2810;SDS011;1413;52.440;13.506;2022-09-28T05:51:59;7.38;;;3.38;;
2810;SDS011;1413;52.440;13.506;2022-09-28T05:54:26;7.40;;;3.40;;
2810;SDS011;1413;52.440;13.506;2022-09-28T05:56:55;7.38;;;3.45;;
2810;SDS011;1413;52.440;13.506;2022-09-28T05:59:22;5.45;;;2.90;;
2810;SDS011;1413;52.440;13.506;2022-09-28T06:01:49;7.05;;;3.20;;
2810;SDS011;1413;52.440;13.506;2022-09-28T06:04:17;7.95;;;3.53;;
2810;SDS011;1413;52.440;13.506;2022-09-28T06:06:44;6.95;;;3.45;;
2810;SDS011;1413;52.440;13.506;2022-09-28T06:09:12;6.30;;;2.92;;
2810;SDS011;1413;52.440;13.506;2022-09-28T06:11:39;6.38;;;3.10;;
2810;SDS011;1413;52.440;13.506;2022-09-28T06:14:08;7.13;;;3.40;;
2810;SDS011;1413;52.440;13.506;2022-09-28T06:16:35;7.28;;;3.50;;
2810;SDS011;1413;52.440;13.506;2022-09-28T06:19:09;6.43;;;3.13;;
2810;SDS011;1413;52.440;13.506;2022-09-28T06:21:37;7.97;;;3.50;;
2810;SDS011;1413;52.440;13.506;2022-09-28T06:24:04;9.15;;;3.60;;
2810;SDS011;1413;52.440;13.506;2022-09-28T06:26:32;12.50;;;3.72;;
2810;SDS011;1413;52.440;13.506;2022-09-28T06:28:59;9.45;;;3.88;;
2810;SDS011;1413;52.440;13.506;2022-09-28T06:31:29;9.43;;;3.83;;
2810;SDS011;1413;52.440;13.506;2022-09-28T06:33:57;6.78;;;3.53;;
2810;SDS011;1413;52.440;13.506;2022-09-28T06:36:27;10.60;;;4.07;;
2810;SDS011;1413;52.440;13.506;2022-09-28T06:38:54;7.43;;;3.58;;
2810;SDS011;1413;52.440;13.506;2022-09-28T06:41:21;10.02;;;4.00;;
2810;SDS011;1413;52.440;13.506;2022-09-28T06:43:49;6.88;;;3.60;;
2810;SDS011;1413;52.440;13.506;2022-09-28T06:46:17;8.20;;;3.60;;
2810;SDS011;1413;52.440;13.506;2022-09-28T06:48:47;9.32;;;4.03;;
2810;SDS011;1413;52.440;13.506;2022-09-28T06:51:15;7.50;;;3.92;;
2810;SDS011;1413;52.440;13.506;2022-09-28T06:53:42;10.27;;;4.30;;
2810;SDS011;1413;52.440;13.506;2022-09-28T06:56:10;8.07;;;3.70;;
2810;SDS011;1413;52.440;13.506;2022-09-28T06:58:37;7.65;;;3.90;;
2810;SDS011;1413;52.440;13.506;2022-09-28T07:01:05;9.38;;;3.75;;
2810;SDS011;1413;52.440;13.506;2022-09-28T07:03:32;8.77;;;3.75;;
2810;SDS011;1413;52.440;13.506;2022-09-28T07:06:01;10.15;;;4.20;;
2810;SDS011;1413;52.440;13.506;2022-09-28T07:08:29;7.45;;;4.03;;
2810;SDS011;1413;52.440;13.506;2022-09-28T07:10:56;7.97;;;4.13;;
2810;SDS011;1413;52.440;13.506;2022-09-28T07:13:24;9.30;;;4.32;;
2810;SDS011;1413;52.440;13.506;2022-09-28T07:16:13;7.43;;;3.85;;
2810;SDS011;1413;52.440;13.506;2022-09-28T07:18:40;9.57;;;4.38;;
2810;SDS011;1413;52.440;13.506;2022-09-28T07:21:09;7.43;;;3.92;;
2810;SDS011;1413;52.440;13.506;2022-09-28T07:23:50;7.43;;;3.95;;
2810;SDS011;1413;52.440;13.506;2022-09-28T07:26:19;11.45;;;4.40;;
2810;SDS011;1413;52.440;13.506;2022-09-28T07:28:49;11.00;;;3.97;;
2810;SDS011;1413;52.440;13.506;2022-09-28T07:31:17;7.32;;;3.97;;
2810;SDS011;1413;52.440;13.506;2022-09-28T07:33:44;6.78;;;3.88;;
2810;SDS011;1413;52.440;13.506;2022-09-28T07:36:14;6.72;;;3.55;;
2810;SDS011;1413;52.440;13.506;2022-09-28T07:38:42;8.45;;;4.20;;
2810;SDS011;1413;52.440;13.506;2022-09-28T07:41:10;9.13;;;3.67;;
2810;SDS011;1413;52.440;13.506;2022-09-28T07:43:36;7.35;;;3.92;;
2810;SDS011;1413;52.440;13.506;2022-09-28T07:46:05;7.90;;;3.90;;
2810;SDS011;1413;52.440;13.506;2022-09-28T07:48:41;7.60;;;3.70;;
2810;SDS011;1413;52.440;13.506;2022-09-28T07:51:08;6.63;;;3.50;;
2810;SDS011;1413;52.440;13.506;2022-09-28T07:53:37;8.57;;;4.18;;
2810;SDS011;1413;52.440;13.506;2022-09-28T07:56:05;7.55;;;3.50;;
2810;SDS011;1413;52.440;13.506;2022-09-28T07:58:34;8.57;;;3.60;;
2810;SDS011;1413;52.440;13.506;2022-09-28T08:01:03;6.53;;;3.50;;
2810;SDS011;1413;52.440;13.506;2022-09-28T08:03:32;7.60;;;3.75;;
2810;SDS011;1413;52.440;13.506;2022-09-28T08:05:59;7.07;;;3.63;;
2810;SDS011;1413;52.440;13.506;2022-09-28T08:08:27;7.00;;;3.53;;
2810;SDS011;1413;52.440;13.506;2022-09-28T08:10:56;6.85;;;3.58;;
2810;SDS011;1413;52.440;13.506;2022-09-28T08:13:24;8.98;;;4.20;;
2810;SDS011;1413;52.440;13.506;2022-09-28T08:15:52;6.55;;;3.17;;
2810;SDS011;1413;52.440;13.506;2022-09-28T08:18:20;7.63;;;3.28;;
2810;SDS011;1413;52.440;13.506;2022-09-28T08:20:50;6.55;;;3.42;;
2810;SDS011;1413;52.440;13.506;2022-09-28T08:23:35;6.93;;;3.50;;
2810;SDS011;1413;52.440;13.506;2022-09-28T08:26:04;5.88;;;3.35;;
2810;SDS011;1413;52.440;13.506;2022-09-28T08:28:32;6.93;;;3.83;;
2810;SDS011;1413;52.440;13.506;2022-09-28T08:31:00;7.40;;;4.03;;
2810;SDS011;1413;52.440;13.506;2022-09-28T08:33:27;6.50;;;3.72;;
2810;SDS011;1413;52.440;13.506;2022-09-28T08:35:55;7.10;;;3.58;;
2810;SDS011;1413;52.440;13.506;2022-09-28T08:38:23;5.80;;;3.20;;
2810;SDS011;1413;52.440;13.506;2022-09-28T08:40:57;6.47;;;3.20;;
2810;SDS011;1413;52.440;13.506;2022-09-28T08:43:44;5.43;;;2.83;;
2810;SDS011;1413;52.440;13.506;2022-09-28T08:46:14;5.65;;;2.67;;
2810;SDS011;1413;52.440;13.506;2022-09-28T08:48:46;7.47;;;2.83;;
2810;SDS011;1413;52.440;13.506;2022-09-28T08:51:41;5.13;;;2.20;;
2810;SDS011;1413;52.440;13.506;2022-09-28T08:54:12;4.57;;;2.30;;
2810;SDS011;1413;52.440;13.506;2022-09-28T08:56:46;4.10;;;2.03;;
2810;SDS011;1413;52.440;13.506;2022-09-28T08:59:17;4.57;;;2.00;;
2810;SDS011;1413;52.440;13.506;2022-09-28T09:01:46;6.18;;;1.80;;
2810;SDS011;1413;52.440;13.506;2022-09-28T09:04:14;3.63;;;1.30;;
2810;SDS011;1413;52.440;13.506;2022-09-28T09:06:46;4.13;;;1.50;;
2810;SDS011;1413;52.440;13.506;2022-09-28T09:11:50;2.55;;;1.00;;
2810;SDS011;1413;52.440;13.506;2022-09-28T09:14:30;3.20;;;1.27;;
2810;SDS011;1413;52.440;13.506;2022-09-28T09:17:01;3.45;;;1.40;;
2810;SDS011;1413;52.440;13.506;2022-09-28T09:19:39;4.32;;;1.50;;
2810;SDS011;1413;52.440;13.506;2022-09-28T09:22:10;3.35;;;1.25;;
2810;SDS011;1413;52.440;13.506;2022-09-28T09:24:41;3.10;;;1.08;;
2810;SDS011;1413;52.440;13.506;2022-09-28T09:27:24;8.48;;;1.50;;
2810;SDS011;1413;52.440;13.506;2022-09-28T09:29:59;2.88;;;1.10;;
2810;SDS011;1413;52.440;13.506;2022-09-28T09:32:32;3.00;;;1.23;;
2810;SDS011;1413;52.440;13.506;2022-09-28T09:38:04;3.75;;;1.17;;
2810;SDS011;1413;52.440;13.506;2022-09-28T09:40:37;4.07;;;1.08;;
2810;SDS011;1413;52.440;13.506;2022-09-28T09:43:16;2.75;;;1.10;;
2810;SDS011;1413;52.440;13.506;2022-09-28T09:46:01;3.35;;;1.13;;
2810;SDS011;1413;52.440;13.506;2022-09-28T09:48:33;2.78;;;0.93;;
2810;SDS011;1413;52.440;13.506;2022-09-28T09:51:03;2.58;;;0.90;;
2810;SDS011;1413;52.440;13.506;2022-09-28T09:53:36;2.33;;;0.80;;
2810;SDS011;1413;52.440;13.506;2022-09-28T09:56:07;2.60;;;0.80;;
2810;SDS011;1413;52.440;13.506;2022-09-28T09:58:39;4.03;;;1.20;;
2810;SDS011;1413;52.440;13.506;2022-09-28T10:01:11;3.30;;;1.08;;
2810;SDS011;1413;52.440;13.506;2022-09-28T10:03:40;4.82;;;1.40;;
2810;SDS011;1413;52.440;13.506;2022-09-28T10:06:10;5.75;;;1.08;;
2810;SDS011;1413;52.440;13.506;2022-09-28T10:08:38;2.72;;;0.80;;
2810;SDS011;1413;52.440;13.506;2022-09-28T10:11:07;3.97;;;0.80;;
2810;SDS011;1413;52.440;13.506;2022-09-28T10:16:05;3.25;;;1.00;;
2810;SDS011;1413;52.440;13.506;2022-09-28T10:18:34;2.70;;;0.82;;
2810;SDS011;1413;52.440;13.506;2022-09-28T10:21:02;2.63;;;0.80;;
2810;SDS011;1413;52.440;13.506;2022-09-28T10:23:30;3.97;;;0.82;;
2810;SDS011;1413;52.440;13.506;2022-09-28T10:25:59;3.40;;;0.90;;
2810;SDS011;1413;52.440;13.506;2022-09-28T10:28:30;4.75;;;0.90;;
2810;SDS011;1413;52.440;13.506;2022-09-28T10:30:59;2.85;;;0.90;;
2810;SDS011;1413;52.440;13.506;2022-09-28T10:33:28;4.10;;;1.25;;
2810;SDS011;1413;52.440;13.506;2022-09-28T10:35:57;3.72;;;1.10;;
2810;SDS011;1413;52.440;13.506;2022-09-28T10:38:25;4.32;;;1.10;;
2810;SDS011;1413;52.440;13.506;2022-09-28T10:40:52;3.92;;;1.50;;
2810;SDS011;1413;52.440;13.506;2022-09-28T10:43:21;3.47;;;1.27;;
2810;SDS011;1413;52.440;13.506;2022-09-28T10:45:58;2.88;;;1.30;;
2810;SDS011;1413;52.440;13.506;2022-09-28T10:48:26;3.85;;;1.10;;
2810;SDS011;1413;52.440;13.506;2022-09-28T10:50:59;3.75;;;1.40;;
2810;SDS011;1413;52.440;13.506;2022-09-28T10:53:28;3.88;;;1.33;;
2810;SDS011;1413;52.440;13.506;2022-09-28T10:55:57;3.20;;;1.52;;
2810;SDS011;1413;52.440;13.506;2022-09-28T10:58:26;3.60;;;1.20;;
2810;SDS011;1413;52.440;13.506;2022-09-28T11:01:00;3.28;;;1.45;;
2810;SDS011;1413;52.440;13.506;2022-09-28T11:03:29;3.10;;;1.40;;
2810;SDS011;1413;52.440;13.506;2022-09-28T11:05:58;3.15;;;1.45;;
2810;SDS011;1413;52.440;13.506;2022-09-28T11:08:28;3.53;;;1.30;;
2810;SDS011;1413;52.440;13.506;2022-09-28T11:11:04;5.07;;;1.30;;
2810;SDS011;1413;52.440;13.506;2022-09-28T11:13:39;3.45;;;1.50;;
2810;SDS011;1413;52.440;13.506;2022-09-28T11:16:08;4.47;;;1.30;;
2810;SDS011;1413;52.440;13.506;2022-09-28T11:18:44;5.55;;;1.58;;
2810;SDS011;1413;52.440;13.506;2022-09-28T11:21:13;3.58;;;1.45;;
2810;SDS011;1413;52.440;13.506;2022-09-28T11:23:42;3.40;;;1.40;;
2810;SDS011;1413;52.440;13.506;2022-09-28T11:26:20;4.32;;;1.38;;
2810;SDS011;1413;52.440;13.506;2022-09-28T11:28:49;5.80;;;1.30;;
2810;SDS011;1413;52.440;13.506;2022-09-28T11:31:17;3.55;;;1.33;;
2810;SDS011;1413;52.440;13.506;2022-09-28T11:33:50;5.28;;;1.40;;
2810;SDS011;1413;52.440;13.506;2022-09-28T11:36:29;3.25;;;1.48;;
2810;SDS011;1413;52.440;13.506;2022-09-28T11:39:02;3.80;;;1.35;;
2810;SDS011;1413;52.440;13.506;2022-09-28T11:44:35;5.35;;;1.63;;
2810;SDS011;1413;52.440;13.506;2022-09-28T11:47:07;3.63;;;1.45;;
2810;SDS011;1413;52.440;13.506;2022-09-28T11:49:37;5.40;;;1.30;;
2810;SDS011;1413;52.440;13.506;2022-09-28T11:52:05;5.85;;;1.27;;
2810;SDS011;1413;52.440;13.506;2022-09-28T11:54:39;5.00;;;1.77;;
2810;SDS011;1413;52.440;13.506;2022-09-28T11:57:10;3.75;;;1.40;;
2810;SDS011;1413;52.440;13.506;2022-09-28T11:59:41;2.97;;;1.13;;
2810;SDS011;1413;52.440;13.506;2022-09-28T12:02:12;7.22;;;2.10;;
2810;SDS011;1413;52.440;13.506;2022-09-28T12:04:43;3.63;;;2.00;;
2810;SDS011;1413;52.440;13.506;2022-09-28T12:07:12;4.22;;;1.30;;
2810;SDS011;1413;52.440;13.506;2022-09-28T12:09:44;4.00;;;1.65;;
2810;SDS011;1413;52.440;13.506;2022-09-28T12:12:15;4.30;;;1.35;;
2810;SDS011;1413;52.440;13.506;2022-09-28T12:14:44;2.97;;;1.13;;
2810;SDS011;1413;52.440;13.506;2022-09-28T12:17:16;3.38;;;1.10;;
2810;SDS011;1413;52.440;13.506;2022-09-28T12:19:47;4.30;;;1.00;;
2810;SDS011;1413;52.440;13.506;2022-09-28T12:22:16;4.60;;;1.20;;
2810;SDS011;1413;52.440;13.506;2022-09-28T12:24:47;2.30;;;0.88;;
2810;SDS011;1413;52.440;13.506;2022-09-28T12:27:16;2.70;;;0.90;;
2810;SDS011;1413;52.440;13.506;2022-09-28T12:29:47;2.55;;;0.80;;
2810;SDS011;1413;52.440;13.506;2022-09-28T12:32:22;2.80;;;0.90;;
2810;SDS011;1413;52.440;13.506;2022-09-28T12:34:51;2.20;;;0.68;;
2810;SDS011;1413;52.440;13.506;2022-09-28T12:37:22;4.05;;;0.80;;
2810;SDS011;1413;52.440;13.506;2022-09-28T12:39:59;3.65;;;0.93;;
2810;SDS011;1413;52.440;13.506;2022-09-28T12:42:34;1.85;;;0.70;;
2810;SDS011;1413;52.440;13.506;2022-09-28T12:48:21;1.92;;;0.70;;
2810;SDS011;1413;52.440;13.506;2022-09-28T12:50:56;2.33;;;0.90;;
2810;SDS011;1413;52.440;13.506;2022-09-28T12:53:35;2.70;;;0.80;;
2810;SDS011;1413;52.440;13.506;2022-09-28T12:56:09;2.80;;;0.70;;
2810;SDS011;1413;52.440;13.506;2022-09-28T12:58:40;2.53;;;0.85;;
2810;SDS011;1413;52.440;13.506;2022-09-28T13:01:14;3.17;;;0.80;;
2810;SDS011;1413;52.440;13.506;2022-09-28T13:03:51;3.80;;;1.00;;
2810;SDS011;1413;52.440;13.506;2022-09-28T13:06:24;3.47;;;0.90;;
2810;SDS011;1413;52.440;13.506;2022-09-28T13:08:58;2.38;;;0.73;;
2810;SDS011;1413;52.440;13.506;2022-09-28T13:11:32;2.80;;;1.00;;
2810;SDS011;1413;52.440;13.506;2022-09-28T13:14:13;2.65;;;0.93;;
2810;SDS011;1413;52.440;13.506;2022-09-28T13:16:44;3.08;;;0.98;;
2810;SDS011;1413;52.440;13.506;2022-09-28T13:19:13;2.90;;;1.00;;
2810;SDS011;1413;52.440;13.506;2022-09-28T13:21:44;4.65;;;1.10;;
2810;SDS011;1413;52.440;13.506;2022-09-28T13:24:15;2.38;;;0.88;;
2810;SDS011;1413;52.440;13.506;2022-09-28T13:27:00;2.03;;;0.70;;
2810;SDS011;1413;52.440;13.506;2022-09-28T13:29:30;2.22;;;0.73;;
2810;SDS011;1413;52.440;13.506;2022-09-28T13:32:00;2.05;;;0.63;;
2810;SDS011;1413;52.440;13.506;2022-09-28T13:34:29;2.38;;;0.90;;
2810;SDS011;1413;52.440;13.506;2022-09-28T13:39:48;3.65;;;0.70;;
2810;SDS011;1413;52.440;13.506;2022-09-28T13:42:26;3.45;;;0.90;;
2810;SDS011;1413;52.440;13.506;2022-09-28T13:45:03;2.72;;;0.70;;
2810;SDS011;1413;52.440;13.506;2022-09-28T13:47:43;1.77;;;0.52;;
2810;SDS011;1413;52.440;13.506;2022-09-28T13:50:17;2.47;;;0.63;;
2810;SDS011;1413;52.440;13.506;2022-09-28T13:52:48;3.15;;;0.93;;
2810;SDS011;1413;52.440;13.506;2022-09-28T13:55:22;2.00;;;0.60;;
2810;SDS011;1413;52.440;13.506;2022-09-28T13:57:53;2.65;;;1.00;;
2810;SDS011;1413;52.440;13.506;2022-09-28T14:00:23;3.60;;;0.80;;
2810;SDS011;1413;52.440;13.506;2022-09-28T14:05:31;2.53;;;0.80;;
2810;SDS011;1413;52.440;13.506;2022-09-28T14:08:10;1.90;;;0.65;;
2810;SDS011;1413;52.440;13.506;2022-09-28T14:10:47;1.98;;;0.60;;
2810;SDS011;1413;52.440;13.506;2022-09-28T14:16:22;3.05;;;0.82;;
2810;SDS011;1413;52.440;13.506;2022-09-28T14:18:53;3.90;;;1.00;;
2810;SDS011;1413;52.440;13.506;2022-09-28T14:21:26;2.13;;;0.63;;
2810;SDS011;1413;52.440;13.506;2022-09-28T14:23:59;4.20;;;0.70;;
2810;SDS011;1413;52.440;13.506;2022-09-28T14:26:47;2.72;;;1.20;;
2810;SDS011;1413;52.440;13.506;2022-09-28T14:29:20;4.25;;;0.55;;
2810;SDS011;1413;52.440;13.506;2022-09-28T14:31:55;1.98;;;0.50;;
2810;SDS011;1413;52.440;13.506;2022-09-28T14:34:29;1.80;;;0.57;;
2810;SDS011;1413;52.440;13.506;2022-09-28T14:36:57;3.33;;;1.00;;
2810;SDS011;1413;52.440;13.506;2022-09-28T14:39:43;7.15;;;3.78;;
2810;SDS011;1413;52.440;13.506;2022-09-28T14:42:28;6.18;;;1.45;;
2810;SDS011;1413;52.440;13.506;2022-09-28T14:47:43;3.38;;;1.30;;
2810;SDS011;1413;52.440;13.506;2022-09-28T14:50:20;5.20;;;0.60;;
2810;SDS011;1413;52.440;13.506;2022-09-28T14:52:48;1.67;;;0.50;;
2810;SDS011;1413;52.440;13.506;2022-09-28T14:55:17;1.65;;;0.43;;
2810;SDS011;1413;52.440;13.506;2022-09-28T14:57:50;2.42;;;0.60;;
2810;SDS011;1413;52.440;13.506;2022-09-28T15:00:19;5.00;;;1.10;;
2810;SDS011;1413;52.440;13.506;2022-09-28T15:02:49;1.75;;;0.60;;
2810;SDS011;1413;52.440;13.506;2022-09-28T15:05:18;2.55;;;0.80;;
2810;SDS011;1413;52.440;13.506;2022-09-28T15:07:47;1.50;;;0.40;;
2810;SDS011;1413;52.440;13.506;2022-09-28T15:10:21;1.85;;;0.47;;
2810;SDS011;1413;52.440;13.506;2022-09-28T15:12:53;2.33;;;0.50;;
2810;SDS011;1413;52.440;13.506;2022-09-28T15:15:25;2.13;;;0.60;;
2810;SDS011;1413;52.440;13.506;2022-09-28T15:17:58;3.92;;;1.00;;
2810;SDS011;1413;52.440;13.506;2022-09-28T15:20:28;7.72;;;3.08;;
2810;SDS011;1413;52.440;13.506;2022-09-28T15:22:56;3.88;;;1.50;;
2810;SDS011;1413;52.440;13.506;2022-09-28T15:25:25;3.35;;;1.55;;
2810;SDS011;1413;52.440;13.506;2022-09-28T15:27:53;3.28;;;0.90;;
2810;SDS011;1413;52.440;13.506;2022-09-28T15:30:23;3.00;;;0.70;;
2810;SDS011;1413;52.440;13.506;2022-09-28T15:32:51;2.15;;;0.73;;
2810;SDS011;1413;52.440;13.506;2022-09-28T15:35:22;2.53;;;0.70;;
2810;SDS011;1413;52.440;13.506;2022-09-28T15:37:49;2.55;;;0.77;;
2810;SDS011;1413;52.440;13.506;2022-09-28T15:40:18;2.60;;;0.90;;
2810;SDS011;1413;52.440;13.506;2022-09-28T15:42:50;2.63;;;0.80;;
2810;SDS011;1413;52.440;13.506;2022-09-28T15:45:25;2.97;;;0.70;;
2810;SDS011;1413;52.440;13.506;2022-09-28T15:47:54;1.90;;;0.73;;